Boyle, Mississippi
Current Conditions -  °F | °C
As of 7:55 PM on Saturday 25 Oct 2014 (Local Time) from KRNV Reporting Station
Clear Clear  
Wind Chill: 69°   Ceiling: Unl
Heat Index: 69°   Visibility: 10mi
Dew Point: 65°   Wind: 6mph
Humidity: 86%   Direction: 230°SW
Pressure: 30.04"   Gusts: NA
Location:  33.7°N, 90.73°W
Report Text: KRNV 260055Z AUTO 23005KT 10SM CLR 21/18 A3004 RMK AO2 T02080183
Loading
Personal Weather Stations






























Interactive Weather Map
Tropical Storm Tracking
New forecast layout! Learn more

10-Day Weather Forecast

Advertisements
Track Severe Weather on mobile